Latest Weather Observations for Busselton Airport

IDW60801

Issued at 12:02 pm WST Thursday 28 May 2015 (issued every 30 minutes, with the page automatically refreshed every 10 minutes)

About weather observations | Map of weather stations | Latest weather observations for WA | Other Formats
Station Details ID: 009603 Name: BUSSELTON AERO Lat: -33.69 Lon: 115.40 Height: 16.3 m
Data from the previous 72 hours. | See also: Recent months at Busselton Airport
Date/Time
WST
Temp
°C
App
Temp
°C
Dew
Point
Rel
Hum
%
Delta-T
°C
Wind Press
QNH
hPa
Press
MSL
hPa
Rain
since 9 am
mm
Dir
 
Spd
km/h
Gust
km/h
Spd
kts
Gust
kts
28/12:00pm 15.2 10.9 7.7 61 3.7 SE 20 28 11 15 1025.0 1024.9 0.0
28/11:30am 15.0 10.5 8.5 65 3.3 ESE 22 30 12 16 1025.1 1025.0 0.0
28/11:00am 14.9 10.7 8.4 65 3.3 SE 20 30 11 16 1025.6 1025.5 0.0
28/10:30am 14.3 9.7 8.3 67 3.0 SE 22 30 12 16 1025.7 1025.6 0.0
28/10:00am 13.8 9.6 8.4 70 2.7 SE 20 24 11 13 1025.9 1025.8 0.0
28/09:30am 13.0 9.0 8.1 72 2.4 SE 19 26 10 14 1025.7 1025.6 0.0
28/09:00am 12.2 9.4 8.5 78 1.8 SE 13 19 7 10 1025.6 1025.5 0.0
28/08:30am 10.3 9.8 9.2 93 0.5 NE 2 7 1 4 1025.3 1025.2 0.0
28/08:00am 9.5 9.4 9.4 99 0.0 CALM 0 4 0 2 1024.9 1024.8 0.0
28/07:30am 8.5 7.0 8.4 99 0.0 ESE 6 7 3 4 1024.5 1024.4 0.0
28/07:00am 8.6 7.1 8.5 99 0.0 WSW 6 7 3 4 1024.4 1024.3 0.0
28/06:30am 8.1 7.6 8.0 99 0.0 CALM 0 0 0 0 1024.1 1024.0 0.0
28/06:00am 7.3 6.7 7.2 99 0.0 CALM 0 0 0 0 1023.7 1023.6 0.0
28/05:30am 6.6 4.7 6.5 99 0.0 S 6 9 3 5 1023.6 1023.5 0.0
28/05:00am 7.1 4.7 7.0 99 0.0 S 9 11 5 6 1023.5 1023.4 0.0
28/04:30am 7.5 6.1 7.4 99 0.0 SSE 4 6 2 3 1023.2 1023.2 0.0
28/04:00am 8.0 6.1 7.7 98 0.1 SSW 7 9 4 5 1023.1 1023.1 0.0
28/03:30am 8.5 6.7 8.1 97 0.2 SSE 7 7 4 4 1023.1 1023.1 0.0
28/03:00am 8.8 8.2 7.6 92 0.6 CALM 0 0 0 0 1023.1 1023.1 0.0
28/02:30am 10.9 10.9 9.7 92 0.6 CALM 0 0 0 0 1023.2 1023.2 0.0
28/02:00am 11.3 11.4 10.2 93 0.6 CALM 0 0 0 0 1023.2 1023.2 0.0
28/01:30am 11.2 11.3 10.1 93 0.6 CALM 0 0 0 0 1023.0 1023.0 0.0
28/01:00am 11.1 10.0 10.0 93 0.6 ESE 6 7 3 4 1023.0 1023.0 0.0
28/12:30am 11.1 9.4 9.9 92 0.6 ESE 9 11 5 6 1022.9 1022.9 0.0
28/12:00am 11.6 10.0 10.3 92 0.7 SSE 9 11 5 6 1023.1 1023.1 0.0
 
Date/Time
WST
Temp
°C
App
Temp
°C
Dew
Point
Rel
Hum
%
Delta-T
°C
Wind Press
QNH
hPa
Press
MSL
hPa
Rain
since 9 am
mm
Dir
 
Spd
km/h
Gust
km/h
Spd
kts
Gust
kts
27/11:30pm 11.9 10.1 10.8 93 0.6 ESE 11 13 6 7 1023.0 1023.0 0.0
27/11:00pm 12.1 10.7 10.8 92 0.7 ESE 9 9 5 5 1022.9 1022.9 0.0
27/10:30pm 12.1 11.0 10.7 91 0.7 SSE 7 9 4 5 1023.0 1023.0 0.0
27/10:00pm 12.2 10.4 10.9 92 0.7 SSE 11 15 6 8 1022.9 1022.9 0.0
27/09:30pm 11.9 9.6 10.5 91 0.7 SE 13 17 7 9 1022.6 1022.6 0.0
27/09:00pm 11.4 9.3 9.7 89 0.9 SSE 11 13 6 7 1022.6 1022.6 0.0
27/08:30pm 10.5 7.6 8.3 86 1.1 S 13 15 7 8 1022.6 1022.6 0.0
27/08:00pm 11.6 10.1 9.0 84 1.3 S 7 11 4 6 1022.2 1022.2 0.0
27/07:30pm 12.2 9.5 9.0 81 1.6 S 13 15 7 8 1022.0 1022.0 0.0
27/07:00pm 13.1 10.9 9.2 77 2.0 SSE 11 15 6 8 1021.7 1021.7 0.0
27/06:30pm 12.1 11.3 8.2 77 1.9 WSW 2 19 1 10 1021.5 1021.5 0.0
27/06:00pm 12.7 11.0 7.4 70 2.6 WSW 6 7 3 4 1021.1 1021.1 0.0
27/05:30pm 14.2 12.5 7.5 64 3.3 WSW 6 7 3 4 1020.8 1020.8 0.0
27/05:00pm 15.4 12.8 7.7 60 3.8 SW 11 19 6 10 1021.0 1021.0 0.0
27/04:30pm 16.6 13.9 7.5 55 4.6 WSW 11 17 6 9 1021.0 1021.0 0.0
27/04:00pm 16.2 13.4 8.4 60 4.0 SSW 13 17 7 9 1021.2 1021.2 0.0
27/03:30pm 16.4 12.7 8.1 58 4.2 SW 17 24 9 13 1021.2 1021.2 0.0
27/03:00pm 17.6 13.6 6.8 49 5.3 SW 17 24 9 13 1021.1 1021.1 0.0
27/02:30pm 17.5 14.0 7.0 50 5.2 SW 15 20 8 11 1021.1 1021.1 0.0
27/02:00pm 18.0 14.4 8.3 53 5.0 SW 17 22 9 12 1021.4 1021.4 0.0
27/01:30pm 16.8 12.9 6.9 52 4.9 SW 17 20 9 11 1021.8 1021.8 0.0
27/01:00pm 17.4 15.1 7.5 52 5.0 SSW 9 15 5 8 1021.9 1021.9 0.0
27/12:30pm 16.2 12.1 7.9 58 4.2 SW 19 24 10 13 1022.5 1022.5 0.0
27/12:00pm 16.5 14.6 9.2 62 3.8 SW 9 19 5 10 1022.9 1022.9 0.0
27/11:30am 16.3 13.9 8.5 60 4.0 WSW 11 15 6 8 1023.3 1023.3 0.0
27/11:00am 15.8 13.5 7.6 58 4.1 W 9 11 5 6 1023.6 1023.5 0.0
27/10:30am 15.0 13.2 7.8 62 3.6 WNW 7 9 4 5 1023.9 1023.8 0.0
27/10:00am 13.7 12.5 10.3 80 1.8 N 7 9 4 5 1023.8 1023.7 0.0
27/09:30am 11.9 11.0 10.5 91 0.7 SSE 6 7 3 4 1024.1 1024.0 0.0
27/09:00am 11.4 11.7 10.8 96 0.3 CALM 0 0 0 0 1024.1 1024.0 2.0
27/08:30am 10.6 10.7 10.3 98 0.2 CALM 0 4 0 2 1024.1 1024.0 2.0
27/08:00am 10.2 10.3 10.0 99 0.1 CALM 0 2 0 1 1024.0 1023.9 2.0
27/07:30am 9.8 8.6 9.7 99 0.1 SSE 6 7 3 4 1023.8 1023.7 2.0
27/07:00am 9.7 8.5 9.6 99 0.0 SSE 6 7 3 4 1023.7 1023.6 2.0
27/06:30am 9.5 8.1 9.4 99 0.0 S 7 9 4 5 1023.5 1023.4 2.0
27/06:00am 9.3 8.0 9.2 99 0.0 SSW 6 7 3 4 1023.3 1023.3 2.0
27/05:30am 9.2 7.3 9.1 99 0.0 SE 9 11 5 6 1023.2 1023.2 2.0
27/05:00am 9.1 7.6 9.0 99 0.0 SW 7 9 4 5 1023.3 1023.3 2.0
27/04:30am 8.9 7.5 8.8 99 0.0 SW 6 7 3 4 1023.2 1023.2 2.0
27/04:00am 8.7 8.4 8.6 99 0.0 CALM 0 0 0 0 1023.2 1023.2 2.0
27/03:30am 7.7 6.0 7.6 99 0.0 SE 6 9 3 5 1023.1 1023.1 2.0
27/03:00am 7.6 7.0 7.5 99 0.0 CALM 0 0 0 0 1023.2 1023.2 2.0
27/02:30am 8.1 7.6 8.0 99 0.0 CALM 0 0 0 0 1023.6 1023.5 2.0
27/02:00am 8.2 7.8 8.1 99 0.0 CALM 0 6 0 3 1023.6 1023.5 2.0
27/01:30am 7.6 7.0 7.3 98 0.1 CALM 0 0 0 0 1023.7 1023.6 2.0
27/01:00am 7.8 5.9 7.4 97 0.2 SSE 7 9 4 5 1023.7 1023.6 2.0
27/12:30am 9.0 8.7 8.7 98 0.1 CALM 0 6 0 3 1023.9 1023.8 2.0
27/12:00am 9.1 7.5 8.6 97 0.2 SSE 7 9 4 5 1024.0 1023.9 2.0
 
Date/Time
WST
Temp
°C
App
Temp
°C
Dew
Point
Rel
Hum
%
Delta-T
°C
Wind Press
QNH
hPa
Press
MSL
hPa
Rain
since 9 am
mm
Dir
 
Spd
km/h
Gust
km/h
Spd
kts
Gust
kts
26/11:30pm 9.7 8.2 9.1 96 0.3 SSW 7 7 4 4 1024.2 1024.1 2.0
26/11:00pm 9.9 8.7 9.4 97 0.2 S 6 7 3 4 1024.5 1024.4 2.0
26/10:30pm 10.1 9.0 9.8 98 0.2 SSW 6 7 3 4 1024.7 1024.6 2.0
26/10:00pm 9.8 8.0 9.5 98 0.1 S 9 9 5 5 1024.8 1024.7 2.0
26/09:30pm 9.9 8.7 9.6 98 0.1 SSW 6 9 3 5 1024.9 1024.8 2.0
26/09:00pm 9.5 7.6 9.0 97 0.2 SSW 9 11 5 6 1024.8 1024.7 2.0
26/08:30pm 8.7 6.5 7.9 95 0.4 SSE 9 9 5 5 1024.7 1024.6 2.0
26/08:00pm 9.0 7.4 7.8 92 0.6 E 6 7 3 4 1024.6 1024.5 2.0
26/07:30pm 9.2 7.5 7.6 90 0.8 SE 6 7 3 4 1024.5 1024.4 2.0
26/07:00pm 9.9 8.1 7.8 87 1.0 SE 7 9 4 5 1024.3 1024.2 2.0
26/06:30pm 10.8 8.4 8.6 86 1.1 S 11 13 6 7 1024.2 1024.1 2.0
26/06:00pm 12.2 8.8 9.0 81 1.6 S 17 19 9 10 1023.9 1023.8 2.0
26/05:30pm 13.3 9.6 9.4 77 2.0 S 19 26 10 14 1023.6 1023.5 2.0
26/05:00pm 13.9 11.1 10.1 78 2.0 S 15 19 8 10 1023.5 1023.4 2.0
26/04:30pm 14.4 10.7 10.2 76 2.2 SSW 20 28 11 15 1023.2 1023.2 2.0
26/04:00pm 14.2 11.2 10.8 80 1.8 S 17 22 9 12 1023.1 1023.1 2.0
26/03:30pm 14.5 10.6 10.9 79 1.9 S 22 32 12 17 1023.1 1023.1 2.0
26/03:00pm 14.9 11.6 11.5 80 1.8 S 20 28 11 15 1023.1 1023.1 2.0
26/02:30pm 14.5 10.7 11.3 81 1.7 S 22 30 12 16 1023.0 1023.0 2.0
26/02:00pm 15.6 12.6 12.4 81 1.7 SSW 20 26 11 14 1022.8 1022.8 2.0
26/01:30pm 16.3 13.8 12.3 77 2.2 S 17 22 9 12 1022.7 1022.7 2.0
26/01:00pm 15.1 12.7 12.6 85 1.4 S 17 22 9 12 1022.7 1022.7 2.0
26/12:30pm 13.9 9.6 13.1 95 0.4 SW 28 37 15 20 1023.2 1023.2 2.0
26/12:00pm 16.2 13.2 12.0 76 2.3 S 19 22 10 12 1023.0 1023.0 0.0
26/11:30am 16.6 13.5 12.2 75 2.4 SW 20 28 11 15 1023.2 1023.2 0.0
26/11:00am 17.8 15.4 10.2 61 4.0 W 13 20 7 11 1023.1 1023.1 0.0
26/10:30am 17.1 15.5 11.4 69 3.1 W 11 15 6 8 1023.3 1023.3 0.0
26/10:00am 15.4 14.9 12.2 81 1.7 WSW 6 9 3 5 1023.3 1023.3 0.0
26/09:30am 13.9 14.8 13.9 100 0.0 S 2 9 1 5 1023.2 1023.2 0.0
26/09:00am 13.2 13.4 13.2 100 0.0 ESE 4 6 2 3 1023.2 1023.2 0.8
26/08:30am 12.1 11.6 12.1 100 0.0 ESE 6 9 3 5 1022.9 1022.9 0.8
26/08:00am 10.9 10.1 10.9 100 0.0 SSE 6 7 3 4 1022.6 1022.6 0.8
26/07:30am 11.4 10.7 11.4 100 0.0 SSE 6 7 3 4 1022.5 1022.5 0.8
26/07:00am 11.4 10.5 11.4 100 0.0 E 7 9 4 5 1022.3 1022.3 0.8
26/06:30am 11.3 10.4 11.3 100 0.0 ENE 7 11 4 6 1021.9 1021.9 0.8
26/06:00am 11.0 10.0 11.0 100 0.0 NNE 7 7 4 4 1021.6 1021.6 0.8
26/05:30am 10.1 9.0 9.9 99 0.1 E 6 7 3 4 1021.5 1021.5 0.8
26/05:00am 10.6 9.5 10.6 100 0.0 E 7 9 4 5 1021.3 1021.3 0.8
26/04:30am 11.0 10.0 11.0 100 0.0 ESE 7 9 4 5 1021.3 1021.3 0.6
26/04:00am 10.7 9.8 10.7 100 0.0 ESE 6 9 3 5 1021.3 1021.3 0.6
26/03:30am 10.4 9.4 10.4 100 0.0 ESE 6 7 3 4 1021.3 1021.3 0.6
26/03:00am 8.7 7.1 8.6 99 0.0 SE 7 9 4 5 1021.3 1021.3 0.6
26/02:30am 7.8 5.9 7.7 99 0.0 ESE 7 9 4 5 1021.2 1021.2 0.4
26/02:00am 7.8 5.9 7.7 99 0.0 E 7 9 4 5 1021.3 1021.3 0.4
26/01:30am 7.9 5.7 7.8 99 0.0 E 9 11 5 6 1021.4 1021.4 0.4
26/01:00am 8.0 6.2 7.9 99 0.0 SE 7 9 4 5 1021.7 1021.7 0.4
26/12:30am 9.0 7.4 8.9 99 0.0 ESE 7 7 4 4 1021.8 1021.8 0.4
26/12:00am 8.2 6.6 8.1 99 0.0 ESE 6 7 3 4 1021.9 1021.9 0.4
 
Date/Time
WST
Temp
°C
App
Temp
°C
Dew
Point
Rel
Hum
%
Delta-T
°C
Wind Press
QNH
hPa
Press
MSL
hPa
Rain
since 9 am
mm
Dir
 
Spd
km/h
Gust
km/h
Spd
kts
Gust
kts
25/11:30pm 9.0 7.4 8.9 99 0.0 E 7 9 4 5 1021.9 1021.9 0.4
25/11:00pm 8.9 7.5 8.8 99 0.0 ESE 6 7 3 4 1022.0 1022.0 0.4
25/10:30pm 9.2 9.0 9.1 99 0.0 CALM 0 4 0 2 1022.2 1022.2 0.4
25/10:00pm 9.2 9.0 9.1 99 0.0 CALM 0 0 0 0 1022.3 1022.3 0.4
25/09:30pm 9.4 8.1 9.3 99 0.0 S 6 9 3 5 1022.1 1022.1 0.4
25/09:00pm 10.1 9.0 9.9 99 0.1 S 6 11 3 6 1022.0 1022.0 0.4
25/08:30pm 10.0 8.9 9.9 99 0.1 SE 6 9 3 5 1021.9 1021.9 0.4
25/08:00pm 10.7 10.1 10.4 98 0.2 E 4 7 2 4 1021.8 1021.8 0.4
25/07:30pm 12.6 13.3 12.3 98 0.2 CALM 0 0 0 0 1021.6 1021.6 0.4
25/07:00pm 12.9 12.4 12.0 94 0.5 NE 6 6 3 3 1021.3 1021.3 0.4
25/06:30pm 14.2 14.3 12.8 91 0.8 ESE 4 7 2 4 1021.1 1021.1 0.4
25/06:00pm 15.8 16.8 13.1 84 1.5 CALM 0 0 0 0 1021.0 1021.0 0.4
25/05:30pm 16.0 17.0 13.1 83 1.6 CALM 0 0 0 0 1020.8 1020.8 0.4
25/05:00pm 16.2 16.9 13.3 83 1.6 WSW 2 7 1 4 1020.7 1020.7 0.4
25/04:30pm 16.5 16.2 13.4 82 1.7 WSW 7 9 4 5 1020.5 1020.5 0.4
25/04:00pm 16.2 15.8 14.0 87 1.2 W 9 19 5 10 1020.6 1020.6 0.4
25/03:30pm 17.9 15.6 11.7 67 3.4 NNW 15 19 8 10 1020.5 1020.5 0.0
25/03:00pm 18.6 17.0 11.7 64 3.8 NNW 11 15 6 8 1020.4 1020.4 0.0
25/02:30pm 17.6 15.5 12.5 72 2.8 NNW 15 20 8 11 1020.4 1020.4 0.0
25/02:00pm 18.5 15.5 12.0 66 3.6 NW 19 26 10 14 1020.5 1020.5 0.0
25/01:30pm 18.4 16.2 12.2 67 3.4 N 15 19 8 10 1020.5 1020.5 0.0
25/01:00pm 18.2 16.3 11.7 66 3.6 NNW 13 17 7 9 1020.7 1020.7 0.0
25/12:30pm 17.6 16.6 12.3 71 2.9 N 9 15 5 8 1021.0 1021.0 0.0

Other Formats:

Comma delimited format used in spreadsheet applications
http://www.bom.gov.au/fwo/IDW60801/IDW60801.95611.axf

JavaScript Object Notation format (JSON) in row-major order
http://www.bom.gov.au/fwo/IDW60801/IDW60801.95611.json